sensor_id;sensor_type;location;lat;lon;timestamp;temperature;humidity
51035;DHT22;37062;52.546;13.230;2022-10-16T00:00:42;17.60;99.90
51035;DHT22;37062;52.546;13.230;2022-10-16T00:03:10;17.70;99.90
51035;DHT22;37062;52.546;13.230;2022-10-16T00:05:39;17.70;99.90
51035;DHT22;37062;52.546;13.230;2022-10-16T00:08:09;17.70;99.90
51035;DHT22;37062;52.546;13.230;2022-10-16T00:10:37;17.70;99.90
51035;DHT22;37062;52.546;13.230;2022-10-16T00:13:05;17.80;99.90
51035;DHT22;37062;52.546;13.230;2022-10-16T00:15:33;17.80;99.90
51035;DHT22;37062;52.546;13.230;2022-10-16T00:18:03;17.80;99.90
51035;DHT22;37062;52.546;13.230;2022-10-16T00:20:33;17.80;99.90
51035;DHT22;37062;52.546;13.230;2022-10-16T00:23:00;17.80;99.90
51035;DHT22;37062;52.546;13.230;2022-10-16T00:25:30;17.80;99.90
51035;DHT22;37062;52.546;13.230;2022-10-16T00:27:59;17.90;99.90
51035;DHT22;37062;52.546;13.230;2022-10-16T00:30:27;17.80;99.90
51035;DHT22;37062;52.546;13.230;2022-10-16T00:32:55;17.80;99.90
51035;DHT22;37062;52.546;13.230;2022-10-16T00:35:23;17.80;99.90
51035;DHT22;37062;52.546;13.230;2022-10-16T00:37:50;17.80;99.90
51035;DHT22;37062;52.546;13.230;2022-10-16T00:40:18;17.80;99.90
51035;DHT22;37062;52.546;13.230;2022-10-16T00:42:46;17.80;99.90
51035;DHT22;37062;52.546;13.230;2022-10-16T00:45:14;17.80;99.90
51035;DHT22;37062;52.546;13.230;2022-10-16T00:47:43;17.80;99.90
51035;DHT22;37062;52.546;13.230;2022-10-16T00:50:18;17.80;99.90
51035;DHT22;37062;52.546;13.230;2022-10-16T00:52:49;17.80;99.90
51035;DHT22;37062;52.546;13.230;2022-10-16T00:55:18;17.80;99.90
51035;DHT22;37062;52.546;13.230;2022-10-16T00:57:48;17.80;99.90
51035;DHT22;37062;52.546;13.230;2022-10-16T01:00:20;17.80;99.90
51035;DHT22;37062;52.546;13.230;2022-10-16T01:02:52;17.70;99.90
51035;DHT22;37062;52.546;13.230;2022-10-16T01:05:21;17.70;99.90
51035;DHT22;37062;52.546;13.230;2022-10-16T01:07:55;17.70;99.90
51035;DHT22;37062;52.546;13.230;2022-10-16T01:10:27;17.80;99.90
51035;DHT22;37062;52.546;13.230;2022-10-16T01:13:02;17.80;99.90
51035;DHT22;37062;52.546;13.230;2022-10-16T01:15:34;17.80;99.90
51035;DHT22;37062;52.546;13.230;2022-10-16T01:18:10;17.80;99.90
51035;DHT22;37062;52.546;13.230;2022-10-16T01:20:44;17.80;99.90
51035;DHT22;37062;52.546;13.230;2022-10-16T01:23:27;17.80;99.90
51035;DHT22;37062;52.546;13.230;2022-10-16T01:26:09;17.80;99.90
51035;DHT22;37062;52.546;13.230;2022-10-16T01:28:42;17.90;99.90
51035;DHT22;37062;52.546;13.230;2022-10-16T01:31:14;17.90;99.90
51035;DHT22;37062;52.546;13.230;2022-10-16T01:33:45;17.90;99.90
51035;DHT22;37062;52.546;13.230;2022-10-16T01:36:16;17.90;99.90
51035;DHT22;37062;52.546;13.230;2022-10-16T01:38:48;17.90;99.90
51035;DHT22;37062;52.546;13.230;2022-10-16T01:41:20;17.90;99.90
51035;DHT22;37062;52.546;13.230;2022-10-16T01:43:56;17.90;99.90
51035;DHT22;37062;52.546;13.230;2022-10-16T01:46:26;17.80;99.90
51035;DHT22;37062;52.546;13.230;2022-10-16T01:48:55;17.80;99.90
51035;DHT22;37062;52.546;13.230;2022-10-16T01:51:23;17.80;99.90
51035;DHT22;37062;52.546;13.230;2022-10-16T01:53:53;17.70;99.90
51035;DHT22;37062;52.546;13.230;2022-10-16T01:56:23;17.70;99.90
51035;DHT22;37062;52.546;13.230;2022-10-16T01:58:55;17.70;99.90
51035;DHT22;37062;52.546;13.230;2022-10-16T02:01:27;17.70;99.90
51035;DHT22;37062;52.546;13.230;2022-10-16T02:03:59;17.70;99.90
51035;DHT22;37062;52.546;13.230;2022-10-16T02:06:29;17.70;99.90
51035;DHT22;37062;52.546;13.230;2022-10-16T02:08:56;17.80;99.90
51035;DHT22;37062;52.546;13.230;2022-10-16T02:11:24;17.80;99.90
51035;DHT22;37062;52.546;13.230;2022-10-16T02:13:57;17.80;99.90
51035;DHT22;37062;52.546;13.230;2022-10-16T02:16:33;17.80;99.90
51035;DHT22;37062;52.546;13.230;2022-10-16T02:19:01;17.80;99.90
51035;DHT22;37062;52.546;13.230;2022-10-16T02:21:31;17.80;99.90
51035;DHT22;37062;52.546;13.230;2022-10-16T02:24:04;17.80;99.90
51035;DHT22;37062;52.546;13.230;2022-10-16T02:26:39;17.70;99.90
51035;DHT22;37062;52.546;13.230;2022-10-16T02:29:12;17.80;99.90
51035;DHT22;37062;52.546;13.230;2022-10-16T02:31:43;17.70;99.90
51035;DHT22;37062;52.546;13.230;2022-10-16T02:34:14;17.80;99.90
51035;DHT22;37062;52.546;13.230;2022-10-16T02:36:42;17.80;99.90
51035;DHT22;37062;52.546;13.230;2022-10-16T02:39:10;17.80;99.90
51035;DHT22;37062;52.546;13.230;2022-10-16T02:41:38;17.70;99.90
51035;DHT22;37062;52.546;13.230;2022-10-16T02:44:06;17.70;99.90
51035;DHT22;37062;52.546;13.230;2022-10-16T02:46:34;17.70;99.90
51035;DHT22;37062;52.546;13.230;2022-10-16T02:49:02;17.70;99.90
51035;DHT22;37062;52.546;13.230;2022-10-16T02:51:30;17.70;99.90
51035;DHT22;37062;52.546;13.230;2022-10-16T02:53:57;17.70;99.90
51035;DHT22;37062;52.546;13.230;2022-10-16T02:56:25;17.70;99.90
51035;DHT22;37062;52.546;13.230;2022-10-16T02:58:52;17.70;99.90
51035;DHT22;37062;52.546;13.230;2022-10-16T03:01:20;17.70;99.90
51035;DHT22;37062;52.546;13.230;2022-10-16T03:03:48;17.60;99.90
51035;DHT22;37062;52.546;13.230;2022-10-16T03:06:19;17.60;99.90
51035;DHT22;37062;52.546;13.230;2022-10-16T03:08:46;17.50;99.90
51035;DHT22;37062;52.546;13.230;2022-10-16T03:11:14;17.50;99.90
51035;DHT22;37062;52.546;13.230;2022-10-16T03:13:42;17.50;99.90
51035;DHT22;37062;52.546;13.230;2022-10-16T03:16:10;17.50;99.90
51035;DHT22;37062;52.546;13.230;2022-10-16T03:18:37;17.40;99.90
51035;DHT22;37062;52.546;13.230;2022-10-16T03:21:06;17.40;99.90
51035;DHT22;37062;52.546;13.230;2022-10-16T03:23:34;17.40;99.90
51035;DHT22;37062;52.546;13.230;2022-10-16T03:26:01;17.30;99.90
51035;DHT22;37062;52.546;13.230;2022-10-16T03:28:28;17.30;99.90
51035;DHT22;37062;52.546;13.230;2022-10-16T03:30:56;17.20;99.90
51035;DHT22;37062;52.546;13.230;2022-10-16T03:33:23;17.20;99.90
51035;DHT22;37062;52.546;13.230;2022-10-16T03:35:51;17.10;99.90
51035;DHT22;37062;52.546;13.230;2022-10-16T03:38:22;17.10;99.90
51035;DHT22;37062;52.546;13.230;2022-10-16T03:40:49;17.10;99.90
51035;DHT22;37062;52.546;13.230;2022-10-16T03:43:16;17.10;99.90
51035;DHT22;37062;52.546;13.230;2022-10-16T03:45:44;17.10;99.90
51035;DHT22;37062;52.546;13.230;2022-10-16T03:48:11;17.10;99.90
51035;DHT22;37062;52.546;13.230;2022-10-16T03:50:39;17.20;99.90
51035;DHT22;37062;52.546;13.230;2022-10-16T03:53:06;17.20;99.90
51035;DHT22;37062;52.546;13.230;2022-10-16T03:55:36;17.20;99.90
51035;DHT22;37062;52.546;13.230;2022-10-16T03:58:03;17.20;99.90
51035;DHT22;37062;52.546;13.230;2022-10-16T04:00:31;17.20;99.90
51035;DHT22;37062;52.546;13.230;2022-10-16T04:02:58;17.20;99.90
51035;DHT22;37062;52.546;13.230;2022-10-16T04:05:26;17.20;99.90
51035;DHT22;37062;52.546;13.230;2022-10-16T04:07:53;17.20;99.90
51035;DHT22;37062;52.546;13.230;2022-10-16T04:10:21;17.20;99.90
51035;DHT22;37062;52.546;13.230;2022-10-16T04:12:50;17.20;99.90
51035;DHT22;37062;52.546;13.230;2022-10-16T04:15:17;17.20;99.90
51035;DHT22;37062;52.546;13.230;2022-10-16T04:17:45;17.20;99.90
51035;DHT22;37062;52.546;13.230;2022-10-16T04:20:12;17.20;99.90
51035;DHT22;37062;52.546;13.230;2022-10-16T04:22:40;17.20;99.90
51035;DHT22;37062;52.546;13.230;2022-10-16T04:25:08;17.10;99.90
51035;DHT22;37062;52.546;13.230;2022-10-16T04:27:35;17.10;99.90
51035;DHT22;37062;52.546;13.230;2022-10-16T04:30:05;17.10;99.90
51035;DHT22;37062;52.546;13.230;2022-10-16T04:32:33;17.00;99.90
51035;DHT22;37062;52.546;13.230;2022-10-16T04:35:00;17.00;99.90
51035;DHT22;37062;52.546;13.230;2022-10-16T04:37:28;17.00;99.90
51035;DHT22;37062;52.546;13.230;2022-10-16T04:39:56;17.00;99.90
51035;DHT22;37062;52.546;13.230;2022-10-16T04:42:24;17.10;99.90
51035;DHT22;37062;52.546;13.230;2022-10-16T04:44:51;17.00;99.90
51035;DHT22;37062;52.546;13.230;2022-10-16T04:47:21;17.00;99.90
51035;DHT22;37062;52.546;13.230;2022-10-16T04:49:49;17.00;99.90
51035;DHT22;37062;52.546;13.230;2022-10-16T04:52:16;17.10;99.90
51035;DHT22;37062;52.546;13.230;2022-10-16T04:54:45;17.00;99.90
51035;DHT22;37062;52.546;13.230;2022-10-16T04:57:12;17.00;99.90
51035;DHT22;37062;52.546;13.230;2022-10-16T04:59:39;17.00;99.90
51035;DHT22;37062;52.546;13.230;2022-10-16T05:02:07;17.00;99.90
51035;DHT22;37062;52.546;13.230;2022-10-16T05:04:36;17.00;99.90
51035;DHT22;37062;52.546;13.230;2022-10-16T05:07:03;16.90;99.90
51035;DHT22;37062;52.546;13.230;2022-10-16T05:11:58;16.90;99.90
51035;DHT22;37062;52.546;13.230;2022-10-16T05:14:25;16.90;99.90
51035;DHT22;37062;52.546;13.230;2022-10-16T05:16:53;16.90;99.90
51035;DHT22;37062;52.546;13.230;2022-10-16T05:19:20;16.90;99.90
51035;DHT22;37062;52.546;13.230;2022-10-16T05:21:49;16.90;99.90
51035;DHT22;37062;52.546;13.230;2022-10-16T05:24:17;16.90;99.90
51035;DHT22;37062;52.546;13.230;2022-10-16T05:26:44;16.80;99.90
51035;DHT22;37062;52.546;13.230;2022-10-16T05:29:12;16.80;99.90
51035;DHT22;37062;52.546;13.230;2022-10-16T05:31:39;16.80;99.90
51035;DHT22;37062;52.546;13.230;2022-10-16T05:34:07;16.90;99.90
51035;DHT22;37062;52.546;13.230;2022-10-16T05:36:34;16.90;99.90
51035;DHT22;37062;52.546;13.230;2022-10-16T05:39:03;17.00;99.90
51035;DHT22;37062;52.546;13.230;2022-10-16T05:41:31;17.00;99.90
51035;DHT22;37062;52.546;13.230;2022-10-16T05:43:58;17.00;99.90
51035;DHT22;37062;52.546;13.230;2022-10-16T05:46:26;17.00;99.90
51035;DHT22;37062;52.546;13.230;2022-10-16T05:48:53;17.00;99.90
51035;DHT22;37062;52.546;13.230;2022-10-16T05:51:21;17.00;99.90
51035;DHT22;37062;52.546;13.230;2022-10-16T05:53:48;17.10;99.90
51035;DHT22;37062;52.546;13.230;2022-10-16T05:56:17;17.20;99.90
51035;DHT22;37062;52.546;13.230;2022-10-16T05:58:45;17.20;99.90
51035;DHT22;37062;52.546;13.230;2022-10-16T06:01:14;17.20;99.90
51035;DHT22;37062;52.546;13.230;2022-10-16T06:03:42;17.30;99.90
51035;DHT22;37062;52.546;13.230;2022-10-16T06:06:11;17.30;99.90
51035;DHT22;37062;52.546;13.230;2022-10-16T06:08:39;17.20;99.90
51035;DHT22;37062;52.546;13.230;2022-10-16T06:11:08;17.20;99.90
51035;DHT22;37062;52.546;13.230;2022-10-16T06:13:38;17.20;99.90
51035;DHT22;37062;52.546;13.230;2022-10-16T06:16:08;17.20;99.90
51035;DHT22;37062;52.546;13.230;2022-10-16T06:18:36;17.30;99.90
51035;DHT22;37062;52.546;13.230;2022-10-16T06:21:08;17.30;99.90
51035;DHT22;37062;52.546;13.230;2022-10-16T06:23:36;17.40;99.90
51035;DHT22;37062;52.546;13.230;2022-10-16T06:26:07;17.40;99.90
51035;DHT22;37062;52.546;13.230;2022-10-16T06:28:35;17.50;99.90
51035;DHT22;37062;52.546;13.230;2022-10-16T06:31:05;17.50;99.90
51035;DHT22;37062;52.546;13.230;2022-10-16T06:33:33;17.50;99.90
51035;DHT22;37062;52.546;13.230;2022-10-16T06:36:01;17.50;99.90
51035;DHT22;37062;52.546;13.230;2022-10-16T06:38:30;17.50;99.90
51035;DHT22;37062;52.546;13.230;2022-10-16T06:40:57;17.50;99.90
51035;DHT22;37062;52.546;13.230;2022-10-16T06:43:25;17.50;99.90
51035;DHT22;37062;52.546;13.230;2022-10-16T06:45:53;17.50;99.90
51035;DHT22;37062;52.546;13.230;2022-10-16T06:48:22;17.60;99.90
51035;DHT22;37062;52.546;13.230;2022-10-16T06:50:58;17.70;99.90
51035;DHT22;37062;52.546;13.230;2022-10-16T06:53:27;17.80;99.90
51035;DHT22;37062;52.546;13.230;2022-10-16T06:55:56;17.80;99.90
51035;DHT22;37062;52.546;13.230;2022-10-16T06:58:23;17.80;99.90
51035;DHT22;37062;52.546;13.230;2022-10-16T07:00:55;17.90;99.90
51035;DHT22;37062;52.546;13.230;2022-10-16T07:03:24;18.00;99.90
51035;DHT22;37062;52.546;13.230;2022-10-16T07:05:52;18.10;99.90
51035;DHT22;37062;52.546;13.230;2022-10-16T07:08:19;18.20;99.90
51035;DHT22;37062;52.546;13.230;2022-10-16T07:10:47;18.40;99.90
51035;DHT22;37062;52.546;13.230;2022-10-16T07:13:14;18.50;99.90
51035;DHT22;37062;52.546;13.230;2022-10-16T07:15:42;18.50;99.90
51035;DHT22;37062;52.546;13.230;2022-10-16T07:18:09;18.50;99.90
51035;DHT22;37062;52.546;13.230;2022-10-16T07:20:38;18.60;99.90
51035;DHT22;37062;52.546;13.230;2022-10-16T07:23:05;18.60;99.90
51035;DHT22;37062;52.546;13.230;2022-10-16T07:25:33;18.60;99.90
51035;DHT22;37062;52.546;13.230;2022-10-16T07:28:00;18.80;99.90
51035;DHT22;37062;52.546;13.230;2022-10-16T07:30:28;18.90;99.90
51035;DHT22;37062;52.546;13.230;2022-10-16T07:32:55;18.90;99.90
51035;DHT22;37062;52.546;13.230;2022-10-16T07:35:23;19.00;99.90
51035;DHT22;37062;52.546;13.230;2022-10-16T07:37:51;19.10;99.90
51035;DHT22;37062;52.546;13.230;2022-10-16T07:40:19;19.10;99.90
51035;DHT22;37062;52.546;13.230;2022-10-16T07:42:47;19.20;99.90
51035;DHT22;37062;52.546;13.230;2022-10-16T07:45:14;19.30;99.90
51035;DHT22;37062;52.546;13.230;2022-10-16T07:47:42;19.20;99.90
51035;DHT22;37062;52.546;13.230;2022-10-16T07:50:09;19.20;99.90
51035;DHT22;37062;52.546;13.230;2022-10-16T07:52:37;19.20;99.90
51035;DHT22;37062;52.546;13.230;2022-10-16T07:55:07;19.20;99.90
51035;DHT22;37062;52.546;13.230;2022-10-16T07:57:34;19.20;99.90
51035;DHT22;37062;52.546;13.230;2022-10-16T08:00:02;19.10;99.90
51035;DHT22;37062;52.546;13.230;2022-10-16T08:02:38;19.10;99.90
51035;DHT22;37062;52.546;13.230;2022-10-16T08:05:06;19.10;99.90
51035;DHT22;37062;52.546;13.230;2022-10-16T08:07:35;19.10;99.90
51035;DHT22;37062;52.546;13.230;2022-10-16T08:10:03;19.00;99.90
51035;DHT22;37062;52.546;13.230;2022-10-16T08:12:32;19.00;99.90
51035;DHT22;37062;52.546;13.230;2022-10-16T08:15:00;19.00;99.90
51035;DHT22;37062;52.546;13.230;2022-10-16T08:17:27;19.10;99.90
51035;DHT22;37062;52.546;13.230;2022-10-16T08:19:55;19.20;99.90
51035;DHT22;37062;52.546;13.230;2022-10-16T08:22:22;19.20;99.90
51035;DHT22;37062;52.546;13.230;2022-10-16T08:24:49;19.30;99.90
51035;DHT22;37062;52.546;13.230;2022-10-16T08:27:17;19.30;99.90
51035;DHT22;37062;52.546;13.230;2022-10-16T08:29:46;19.30;99.90
51035;DHT22;37062;52.546;13.230;2022-10-16T08:32:13;19.30;99.90
51035;DHT22;37062;52.546;13.230;2022-10-16T08:34:41;19.30;99.90
51035;DHT22;37062;52.546;13.230;2022-10-16T08:37:08;19.30;99.90
51035;DHT22;37062;52.546;13.230;2022-10-16T08:39:37;19.40;99.90
51035;DHT22;37062;52.546;13.230;2022-10-16T08:42:22;19.50;99.90
51035;DHT22;37062;52.546;13.230;2022-10-16T08:45:07;19.50;99.90
51035;DHT22;37062;52.546;13.230;2022-10-16T08:47:45;19.60;99.90
51035;DHT22;37062;52.546;13.230;2022-10-16T08:50:21;19.60;99.90
51035;DHT22;37062;52.546;13.230;2022-10-16T08:52:50;19.70;99.90
51035;DHT22;37062;52.546;13.230;2022-10-16T08:55:29;19.90;99.90
51035;DHT22;37062;52.546;13.230;2022-10-16T08:57:58;20.10;99.90
51035;DHT22;37062;52.546;13.230;2022-10-16T09:00:27;20.30;99.90
51035;DHT22;37062;52.546;13.230;2022-10-16T09:03:03;20.50;99.90
51035;DHT22;37062;52.546;13.230;2022-10-16T09:05:57;20.60;99.90
51035;DHT22;37062;52.546;13.230;2022-10-16T09:08:33;20.80;99.90
51035;DHT22;37062;52.546;13.230;2022-10-16T09:11:09;20.90;99.90
51035;DHT22;37062;52.546;13.230;2022-10-16T09:13:46;21.10;99.90
51035;DHT22;37062;52.546;13.230;2022-10-16T09:16:19;21.40;99.90
51035;DHT22;37062;52.546;13.230;2022-10-16T09:18:54;21.60;99.90
51035;DHT22;37062;52.546;13.230;2022-10-16T09:21:25;21.70;99.90
51035;DHT22;37062;52.546;13.230;2022-10-16T09:23:54;21.80;99.90
51035;DHT22;37062;52.546;13.230;2022-10-16T09:26:24;21.90;99.90
51035;DHT22;37062;52.546;13.230;2022-10-16T09:28:52;21.90;99.90
51035;DHT22;37062;52.546;13.230;2022-10-16T09:31:22;22.10;99.90
51035;DHT22;37062;52.546;13.230;2022-10-16T09:33:53;22.40;99.90
51035;DHT22;37062;52.546;13.230;2022-10-16T09:36:23;22.80;99.90
51035;DHT22;37062;52.546;13.230;2022-10-16T09:39:03;23.10;99.90
51035;DHT22;37062;52.546;13.230;2022-10-16T09:41:34;23.20;99.90
51035;DHT22;37062;52.546;13.230;2022-10-16T09:44:04;23.30;99.90
51035;DHT22;37062;52.546;13.230;2022-10-16T09:46:35;23.20;99.90
51035;DHT22;37062;52.546;13.230;2022-10-16T09:49:05;23.30;99.90
51035;DHT22;37062;52.546;13.230;2022-10-16T09:51:34;23.30;99.90
51035;DHT22;37062;52.546;13.230;2022-10-16T09:54:12;23.40;99.90
51035;DHT22;37062;52.546;13.230;2022-10-16T09:56:40;23.20;99.90
51035;DHT22;37062;52.546;13.230;2022-10-16T09:59:11;23.10;99.90
51035;DHT22;37062;52.546;13.230;2022-10-16T10:01:42;23.10;99.90
51035;DHT22;37062;52.546;13.230;2022-10-16T10:04:11;23.00;99.90
51035;DHT22;37062;52.546;13.230;2022-10-16T10:06:44;23.00;99.90
51035;DHT22;37062;52.546;13.230;2022-10-16T10:09:18;22.80;99.90
51035;DHT22;37062;52.546;13.230;2022-10-16T10:11:52;22.60;99.90
51035;DHT22;37062;52.546;13.230;2022-10-16T10:14:24;22.40;99.90
51035;DHT22;37062;52.546;13.230;2022-10-16T10:17:07;22.20;99.90
51035;DHT22;37062;52.546;13.230;2022-10-16T10:19:38;22.20;99.90
51035;DHT22;37062;52.546;13.230;2022-10-16T10:22:22;22.20;99.90
51035;DHT22;37062;52.546;13.230;2022-10-16T10:25:01;22.10;99.90
51035;DHT22;37062;52.546;13.230;2022-10-16T10:27:42;22.00;99.90
51035;DHT22;37062;52.546;13.230;2022-10-16T10:30:19;21.90;99.90
51035;DHT22;37062;52.546;13.230;2022-10-16T10:33:01;21.80;99.90
51035;DHT22;37062;52.546;13.230;2022-10-16T10:35:36;21.80;99.90
51035;DHT22;37062;52.546;13.230;2022-10-16T10:38:20;21.70;99.90
51035;DHT22;37062;52.546;13.230;2022-10-16T10:41:00;21.70;99.90
51035;DHT22;37062;52.546;13.230;2022-10-16T10:43:42;21.70;99.90
51035;DHT22;37062;52.546;13.230;2022-10-16T10:46:23;21.80;99.90
51035;DHT22;37062;52.546;13.230;2022-10-16T10:49:14;22.00;99.90
51035;DHT22;37062;52.546;13.230;2022-10-16T10:51:49;22.20;99.90
51035;DHT22;37062;52.546;13.230;2022-10-16T10:54:28;22.30;99.90
51035;DHT22;37062;52.546;13.230;2022-10-16T10:57:02;22.60;99.90
51035;DHT22;37062;52.546;13.230;2022-10-16T10:59:53;22.70;99.90
51035;DHT22;37062;52.546;13.230;2022-10-16T11:02:29;22.90;99.90
51035;DHT22;37062;52.546;13.230;2022-10-16T11:08:00;22.70;99.90
51035;DHT22;37062;52.546;13.230;2022-10-16T11:14:20;22.60;99.90
51035;DHT22;37062;52.546;13.230;2022-10-16T11:16:52;22.60;99.90
51035;DHT22;37062;52.546;13.230;2022-10-16T11:19:31;22.60;99.90
51035;DHT22;37062;52.546;13.230;2022-10-16T11:22:11;22.60;99.90
51035;DHT22;37062;52.546;13.230;2022-10-16T11:24:45;22.60;99.90
51035;DHT22;37062;52.546;13.230;2022-10-16T11:27:17;22.60;99.90
51035;DHT22;37062;52.546;13.230;2022-10-16T11:29:52;22.50;99.90
51035;DHT22;37062;52.546;13.230;2022-10-16T11:32:25;22.40;99.90
51035;DHT22;37062;52.546;13.230;2022-10-16T11:34:59;22.10;99.90
51035;DHT22;37062;52.546;13.230;2022-10-16T11:37:32;22.10;99.90
51035;DHT22;37062;52.546;13.230;2022-10-16T11:40:10;22.10;99.90
51035;DHT22;37062;52.546;13.230;2022-10-16T11:42:48;22.10;99.90
51035;DHT22;37062;52.546;13.230;2022-10-16T11:45:26;22.00;99.90
51035;DHT22;37062;52.546;13.230;2022-10-16T11:47:59;22.00;99.90
51035;DHT22;37062;52.546;13.230;2022-10-16T11:50:34;21.90;99.90
51035;DHT22;37062;52.546;13.230;2022-10-16T11:53:07;21.90;99.90
51035;DHT22;37062;52.546;13.230;2022-10-16T11:55:41;21.90;99.90
51035;DHT22;37062;52.546;13.230;2022-10-16T11:58:16;21.90;99.90
51035;DHT22;37062;52.546;13.230;2022-10-16T12:00:57;21.90;99.90
51035;DHT22;37062;52.546;13.230;2022-10-16T12:03:29;21.90;99.90
51035;DHT22;37062;52.546;13.230;2022-10-16T12:06:13;21.90;99.90
51035;DHT22;37062;52.546;13.230;2022-10-16T12:08:45;21.90;99.90
51035;DHT22;37062;52.546;13.230;2022-10-16T12:11:30;21.90;99.90
51035;DHT22;37062;52.546;13.230;2022-10-16T12:14:20;21.90;99.90
51035;DHT22;37062;52.546;13.230;2022-10-16T12:16:54;22.00;99.90
51035;DHT22;37062;52.546;13.230;2022-10-16T12:19:24;22.00;99.90
51035;DHT22;37062;52.546;13.230;2022-10-16T12:21:54;22.00;99.90
51035;DHT22;37062;52.546;13.230;2022-10-16T12:24:33;22.00;99.90
51035;DHT22;37062;52.546;13.230;2022-10-16T12:27:01;22.00;99.90
51035;DHT22;37062;52.546;13.230;2022-10-16T12:29:34;21.90;99.90
51035;DHT22;37062;52.546;13.230;2022-10-16T12:32:04;21.90;99.90
51035;DHT22;37062;52.546;13.230;2022-10-16T12:34:38;21.90;99.90
51035;DHT22;37062;52.546;13.230;2022-10-16T12:37:13;22.00;99.90
51035;DHT22;37062;52.546;13.230;2022-10-16T12:39:43;22.00;99.90
51035;DHT22;37062;52.546;13.230;2022-10-16T12:42:23;22.10;99.90
51035;DHT22;37062;52.546;13.230;2022-10-16T12:44:51;22.20;99.90
51035;DHT22;37062;52.546;13.230;2022-10-16T12:47:21;22.20;99.90
51035;DHT22;37062;52.546;13.230;2022-10-16T12:49:50;22.10;99.90
51035;DHT22;37062;52.546;13.230;2022-10-16T12:52:26;22.10;99.90
51035;DHT22;37062;52.546;13.230;2022-10-16T12:54:58;22.00;99.90
51035;DHT22;37062;52.546;13.230;2022-10-16T12:57:44;21.90;99.90
51035;DHT22;37062;52.546;13.230;2022-10-16T13:00:21;21.80;99.90
51035;DHT22;37062;52.546;13.230;2022-10-16T13:03:13;21.70;99.90
51035;DHT22;37062;52.546;13.230;2022-10-16T13:05:58;21.60;99.90
51035;DHT22;37062;52.546;13.230;2022-10-16T13:08:40;21.60;99.90
51035;DHT22;37062;52.546;13.230;2022-10-16T13:11:16;21.50;99.90
51035;DHT22;37062;52.546;13.230;2022-10-16T13:14:00;21.50;99.90
51035;DHT22;37062;52.546;13.230;2022-10-16T13:16:39;21.60;99.90
51035;DHT22;37062;52.546;13.230;2022-10-16T13:19:18;21.70;99.90
51035;DHT22;37062;52.546;13.230;2022-10-16T13:21:53;21.70;99.90
51035;DHT22;37062;52.546;13.230;2022-10-16T13:24:33;21.70;99.90
51035;DHT22;37062;52.546;13.230;2022-10-16T13:27:11;21.70;99.90
51035;DHT22;37062;52.546;13.230;2022-10-16T13:29:41;21.70;99.90
51035;DHT22;37062;52.546;13.230;2022-10-16T13:32:10;21.70;99.90
51035;DHT22;37062;52.546;13.230;2022-10-16T13:34:44;21.80;99.90
51035;DHT22;37062;52.546;13.230;2022-10-16T13:37:21;21.70;99.90
51035;DHT22;37062;52.546;13.230;2022-10-16T13:39:49;21.80;99.90
51035;DHT22;37062;52.546;13.230;2022-10-16T13:42:23;21.70;99.90
51035;DHT22;37062;52.546;13.230;2022-10-16T13:44:53;21.70;99.90
51035;DHT22;37062;52.546;13.230;2022-10-16T13:47:23;21.70;99.90
51035;DHT22;37062;52.546;13.230;2022-10-16T13:50:00;21.70;99.90
51035;DHT22;37062;52.546;13.230;2022-10-16T13:52:28;21.70;99.90
51035;DHT22;37062;52.546;13.230;2022-10-16T13:54:55;21.60;99.90
51035;DHT22;37062;52.546;13.230;2022-10-16T13:57:24;21.60;99.90
51035;DHT22;37062;52.546;13.230;2022-10-16T13:59:53;21.60;99.90
51035;DHT22;37062;52.546;13.230;2022-10-16T14:02:26;21.50;99.90
51035;DHT22;37062;52.546;13.230;2022-10-16T14:04:55;21.50;99.90
51035;DHT22;37062;52.546;13.230;2022-10-16T14:07:25;21.50;99.90
51035;DHT22;37062;52.546;13.230;2022-10-16T14:09:54;21.50;99.90
51035;DHT22;37062;52.546;13.230;2022-10-16T14:12:24;21.50;99.90
51035;DHT22;37062;52.546;13.230;2022-10-16T14:14:53;21.50;99.90
51035;DHT22;37062;52.546;13.230;2022-10-16T14:17:24;21.50;99.90
51035;DHT22;37062;52.546;13.230;2022-10-16T14:19:54;21.40;99.90
51035;DHT22;37062;52.546;13.230;2022-10-16T14:22:30;21.40;99.90
51035;DHT22;37062;52.546;13.230;2022-10-16T14:24:59;21.40;99.90
51035;DHT22;37062;52.546;13.230;2022-10-16T14:27:32;21.40;99.90
51035;DHT22;37062;52.546;13.230;2022-10-16T14:30:15;21.40;99.90
51035;DHT22;37062;52.546;13.230;2022-10-16T14:32:54;21.40;99.90
51035;DHT22;37062;52.546;13.230;2022-10-16T14:35:24;21.40;99.90
51035;DHT22;37062;52.546;13.230;2022-10-16T14:37:52;21.30;99.90
51035;DHT22;37062;52.546;13.230;2022-10-16T14:40:21;21.30;99.90
51035;DHT22;37062;52.546;13.230;2022-10-16T14:42:52;21.30;99.90
51035;DHT22;37062;52.546;13.230;2022-10-16T14:45:21;21.30;99.90
51035;DHT22;37062;52.546;13.230;2022-10-16T14:47:51;21.30;99.90
51035;DHT22;37062;52.546;13.230;2022-10-16T14:50:19;21.30;99.90
51035;DHT22;37062;52.546;13.230;2022-10-16T14:52:48;21.30;99.90
51035;DHT22;37062;52.546;13.230;2022-10-16T14:55:42;21.30;99.90
51035;DHT22;37062;52.546;13.230;2022-10-16T14:58:15;21.20;99.90
51035;DHT22;37062;52.546;13.230;2022-10-16T15:00:43;21.20;99.90
51035;DHT22;37062;52.546;13.230;2022-10-16T15:03:11;21.30;99.90
51035;DHT22;37062;52.546;13.230;2022-10-16T15:05:39;21.20;99.90
51035;DHT22;37062;52.546;13.230;2022-10-16T15:08:06;21.20;99.90
51035;DHT22;37062;52.546;13.230;2022-10-16T15:10:39;21.20;99.90
51035;DHT22;37062;52.546;13.230;2022-10-16T15:13:12;21.10;99.90
51035;DHT22;37062;52.546;13.230;2022-10-16T15:15:42;21.00;99.90
51035;DHT22;37062;52.546;13.230;2022-10-16T15:18:11;21.00;99.90
51035;DHT22;37062;52.546;13.230;2022-10-16T15:20:41;21.00;99.90
51035;DHT22;37062;52.546;13.230;2022-10-16T15:23:14;20.90;99.90
51035;DHT22;37062;52.546;13.230;2022-10-16T15:25:43;20.90;99.90
51035;DHT22;37062;52.546;13.230;2022-10-16T15:28:13;20.80;99.90
51035;DHT22;37062;52.546;13.230;2022-10-16T15:30:41;20.80;99.90
51035;DHT22;37062;52.546;13.230;2022-10-16T15:33:14;20.70;99.90
51035;DHT22;37062;52.546;13.230;2022-10-16T15:35:42;20.70;99.90
51035;DHT22;37062;52.546;13.230;2022-10-16T15:38:12;20.60;99.90
51035;DHT22;37062;52.546;13.230;2022-10-16T15:40:40;20.60;99.90
51035;DHT22;37062;52.546;13.230;2022-10-16T15:43:08;20.50;99.90
51035;DHT22;37062;52.546;13.230;2022-10-16T15:45:38;20.50;99.90
51035;DHT22;37062;52.546;13.230;2022-10-16T15:48:08;20.40;99.90